sensor_id;sensor_type;location;lat;lon;timestamp;temperature;humidity
44823;DHT22;51097;51.984;5.650;2022-11-02T00:00:31;15.90;99.90
44823;DHT22;51097;51.984;5.650;2022-11-02T00:02:57;16.00;99.90
44823;DHT22;51097;51.984;5.650;2022-11-02T00:05:23;16.10;99.90
44823;DHT22;51097;51.984;5.650;2022-11-02T00:07:53;16.20;99.90
44823;DHT22;51097;51.984;5.650;2022-11-02T00:10:21;16.10;99.90
44823;DHT22;51097;51.984;5.650;2022-11-02T00:12:47;16.10;99.90
44823;DHT22;51097;51.984;5.650;2022-11-02T00:15:13;16.20;99.90
44823;DHT22;51097;51.984;5.650;2022-11-02T00:17:41;16.20;99.90
44823;DHT22;51097;51.984;5.650;2022-11-02T00:20:08;16.40;99.90
44823;DHT22;51097;51.984;5.650;2022-11-02T00:22:35;16.30;99.90
44823;DHT22;51097;51.984;5.650;2022-11-02T00:25:02;16.40;99.90
44823;DHT22;51097;51.984;5.650;2022-11-02T00:27:29;16.40;99.90
44823;DHT22;51097;51.984;5.650;2022-11-02T00:29:56;16.60;99.90
44823;DHT22;51097;51.984;5.650;2022-11-02T00:32:22;16.40;99.90
44823;DHT22;51097;51.984;5.650;2022-11-02T00:34:47;16.30;99.90
44823;DHT22;51097;51.984;5.650;2022-11-02T00:37:13;16.30;99.90
44823;DHT22;51097;51.984;5.650;2022-11-02T00:39:38;16.30;99.90
44823;DHT22;51097;51.984;5.650;2022-11-02T00:42:04;16.40;99.90
44823;DHT22;51097;51.984;5.650;2022-11-02T00:44:30;16.50;99.90
44823;DHT22;51097;51.984;5.650;2022-11-02T00:46:55;16.40;99.90
44823;DHT22;51097;51.984;5.650;2022-11-02T00:49:21;16.50;99.90
44823;DHT22;51097;51.984;5.650;2022-11-02T00:51:46;16.50;99.90
44823;DHT22;51097;51.984;5.650;2022-11-02T00:54:12;16.50;99.90
44823;DHT22;51097;51.984;5.650;2022-11-02T00:56:37;16.50;99.90
44823;DHT22;51097;51.984;5.650;2022-11-02T00:59:03;16.50;99.90
44823;DHT22;51097;51.984;5.650;2022-11-02T01:01:29;16.50;99.90
44823;DHT22;51097;51.984;5.650;2022-11-02T01:03:55;16.50;99.90
44823;DHT22;51097;51.984;5.650;2022-11-02T01:06:21;16.50;99.90
44823;DHT22;51097;51.984;5.650;2022-11-02T01:08:47;16.50;99.90
44823;DHT22;51097;51.984;5.650;2022-11-02T01:11:15;16.40;99.90
44823;DHT22;51097;51.984;5.650;2022-11-02T01:13:41;16.30;99.90
44823;DHT22;51097;51.984;5.650;2022-11-02T01:16:08;16.40;99.90
44823;DHT22;51097;51.984;5.650;2022-11-02T01:18:34;16.20;99.90
44823;DHT22;51097;51.984;5.650;2022-11-02T01:20:59;16.20;99.90
44823;DHT22;51097;51.984;5.650;2022-11-02T01:23:25;16.30;99.90
44823;DHT22;51097;51.984;5.650;2022-11-02T01:25:51;16.20;99.90
44823;DHT22;51097;51.984;5.650;2022-11-02T01:28:16;16.10;99.90
44823;DHT22;51097;51.984;5.650;2022-11-02T01:30:42;16.20;99.90
44823;DHT22;51097;51.984;5.650;2022-11-02T01:33:08;16.20;99.90
44823;DHT22;51097;51.984;5.650;2022-11-02T01:35:35;16.00;99.90
44823;DHT22;51097;51.984;5.650;2022-11-02T01:38:01;15.70;99.90
44823;DHT22;51097;51.984;5.650;2022-11-02T01:40:35;15.40;99.90
44823;DHT22;51097;51.984;5.650;2022-11-02T01:43:21;15.30;99.90
44823;DHT22;51097;51.984;5.650;2022-11-02T01:45:47;15.30;99.90
44823;DHT22;51097;51.984;5.650;2022-11-02T01:48:14;15.10;99.90
44823;DHT22;51097;51.984;5.650;2022-11-02T01:50:40;14.90;99.90
44823;DHT22;51097;51.984;5.650;2022-11-02T01:53:06;14.80;99.90
44823;DHT22;51097;51.984;5.650;2022-11-02T01:55:32;14.60;99.90
44823;DHT22;51097;51.984;5.650;2022-11-02T01:58:01;14.50;99.90
44823;DHT22;51097;51.984;5.650;2022-11-02T02:00:27;14.60;99.90
44823;DHT22;51097;51.984;5.650;2022-11-02T02:03:09;14.50;99.90
44823;DHT22;51097;51.984;5.650;2022-11-02T02:05:47;14.50;99.90
44823;DHT22;51097;51.984;5.650;2022-11-02T02:08:17;14.30;99.90
44823;DHT22;51097;51.984;5.650;2022-11-02T02:10:44;14.10;99.90
44823;DHT22;51097;51.984;5.650;2022-11-02T02:13:10;14.20;99.90
44823;DHT22;51097;51.984;5.650;2022-11-02T02:16:00;14.10;99.90
44823;DHT22;51097;51.984;5.650;2022-11-02T02:18:57;14.10;99.90
44823;DHT22;51097;51.984;5.650;2022-11-02T02:24:47;14.20;99.90
44823;DHT22;51097;51.984;5.650;2022-11-02T02:27:27;14.20;99.90
44823;DHT22;51097;51.984;5.650;2022-11-02T02:30:04;14.10;99.90
44823;DHT22;51097;51.984;5.650;2022-11-02T02:35:21;14.20;99.90
44823;DHT22;51097;51.984;5.650;2022-11-02T02:37:55;14.20;99.90
44823;DHT22;51097;51.984;5.650;2022-11-02T02:40:32;14.20;99.90
44823;DHT22;51097;51.984;5.650;2022-11-02T02:43:07;14.20;99.90
44823;DHT22;51097;51.984;5.650;2022-11-02T02:46:00;14.30;99.90
44823;DHT22;51097;51.984;5.650;2022-11-02T02:48:29;14.30;99.90
44823;DHT22;51097;51.984;5.650;2022-11-02T02:51:04;14.20;99.90
44823;DHT22;51097;51.984;5.650;2022-11-02T02:53:52;14.20;99.90
44823;DHT22;51097;51.984;5.650;2022-11-02T02:56:24;14.20;99.90
44823;DHT22;51097;51.984;5.650;2022-11-02T02:59:17;14.20;99.90
44823;DHT22;51097;51.984;5.650;2022-11-02T03:01:44;14.20;99.90
44823;DHT22;51097;51.984;5.650;2022-11-02T03:04:14;14.10;99.90
44823;DHT22;51097;51.984;5.650;2022-11-02T03:06:41;14.00;99.90
44823;DHT22;51097;51.984;5.650;2022-11-02T03:09:21;14.30;99.90
44823;DHT22;51097;51.984;5.650;2022-11-02T03:14:44;14.10;99.90
44823;DHT22;51097;51.984;5.650;2022-11-02T03:17:16;14.20;99.90
44823;DHT22;51097;51.984;5.650;2022-11-02T03:20:10;14.20;99.90
44823;DHT22;51097;51.984;5.650;2022-11-02T03:30:49;14.40;99.90
44823;DHT22;51097;51.984;5.650;2022-11-02T03:33:27;14.30;99.90
44823;DHT22;51097;51.984;5.650;2022-11-02T03:36:10;14.30;99.90
44823;DHT22;51097;51.984;5.650;2022-11-02T03:38:41;14.30;99.90
44823;DHT22;51097;51.984;5.650;2022-11-02T03:41:09;14.30;99.90
44823;DHT22;51097;51.984;5.650;2022-11-02T03:43:37;14.50;99.90
44823;DHT22;51097;51.984;5.650;2022-11-02T03:46:05;14.50;99.90
44823;DHT22;51097;51.984;5.650;2022-11-02T03:48:43;14.50;99.90
44823;DHT22;51097;51.984;5.650;2022-11-02T03:51:13;14.50;99.90
44823;DHT22;51097;51.984;5.650;2022-11-02T03:53:53;14.50;99.90
44823;DHT22;51097;51.984;5.650;2022-11-02T03:56:37;14.50;99.90
44823;DHT22;51097;51.984;5.650;2022-11-02T03:59:04;14.50;99.90
44823;DHT22;51097;51.984;5.650;2022-11-02T04:01:29;14.50;99.90
44823;DHT22;51097;51.984;5.650;2022-11-02T04:04:02;14.40;99.90
44823;DHT22;51097;51.984;5.650;2022-11-02T04:06:28;14.50;99.90
44823;DHT22;51097;51.984;5.650;2022-11-02T04:08:54;14.60;99.90
44823;DHT22;51097;51.984;5.650;2022-11-02T04:11:19;14.60;99.90
44823;DHT22;51097;51.984;5.650;2022-11-02T04:14:04;14.60;99.90
44823;DHT22;51097;51.984;5.650;2022-11-02T04:16:48;14.50;99.90
44823;DHT22;51097;51.984;5.650;2022-11-02T04:19:14;14.40;99.90
44823;DHT22;51097;51.984;5.650;2022-11-02T04:21:52;14.30;99.90
44823;DHT22;51097;51.984;5.650;2022-11-02T04:24:36;14.50;99.90
44823;DHT22;51097;51.984;5.650;2022-11-02T04:27:20;14.50;99.90
44823;DHT22;51097;51.984;5.650;2022-11-02T04:29:46;14.40;99.90
44823;DHT22;51097;51.984;5.650;2022-11-02T04:32:12;14.60;99.90
44823;DHT22;51097;51.984;5.650;2022-11-02T04:34:37;14.60;99.90
44823;DHT22;51097;51.984;5.650;2022-11-02T04:37:03;14.70;99.90
44823;DHT22;51097;51.984;5.650;2022-11-02T04:39:51;14.70;99.90
44823;DHT22;51097;51.984;5.650;2022-11-02T04:42:16;14.80;99.90
44823;DHT22;51097;51.984;5.650;2022-11-02T04:44:42;14.80;99.90
44823;DHT22;51097;51.984;5.650;2022-11-02T04:47:08;14.70;99.90
44823;DHT22;51097;51.984;5.650;2022-11-02T04:49:33;14.70;99.90
44823;DHT22;51097;51.984;5.650;2022-11-02T04:51:59;14.80;99.90
44823;DHT22;51097;51.984;5.650;2022-11-02T04:54:24;14.80;99.90
44823;DHT22;51097;51.984;5.650;2022-11-02T04:56:50;14.80;99.90
44823;DHT22;51097;51.984;5.650;2022-11-02T04:59:15;14.80;99.90
44823;DHT22;51097;51.984;5.650;2022-11-02T05:01:41;14.70;99.90
44823;DHT22;51097;51.984;5.650;2022-11-02T05:04:08;14.80;99.90
44823;DHT22;51097;51.984;5.650;2022-11-02T05:06:35;14.80;99.90
44823;DHT22;51097;51.984;5.650;2022-11-02T05:09:00;14.90;99.90
44823;DHT22;51097;51.984;5.650;2022-11-02T05:11:26;14.90;99.90
44823;DHT22;51097;51.984;5.650;2022-11-02T05:13:51;14.90;99.90
44823;DHT22;51097;51.984;5.650;2022-11-02T05:16:17;15.00;99.90
44823;DHT22;51097;51.984;5.650;2022-11-02T05:18:42;15.00;99.90
44823;DHT22;51097;51.984;5.650;2022-11-02T05:21:09;15.10;99.90
44823;DHT22;51097;51.984;5.650;2022-11-02T05:23:36;15.00;99.90
44823;DHT22;51097;51.984;5.650;2022-11-02T05:26:03;15.00;99.90
44823;DHT22;51097;51.984;5.650;2022-11-02T05:28:30;15.00;99.90
44823;DHT22;51097;51.984;5.650;2022-11-02T05:31:00;15.00;99.90
44823;DHT22;51097;51.984;5.650;2022-11-02T05:33:28;15.00;99.90
44823;DHT22;51097;51.984;5.650;2022-11-02T05:35:55;14.90;99.90
44823;DHT22;51097;51.984;5.650;2022-11-02T05:38:22;15.00;99.90
44823;DHT22;51097;51.984;5.650;2022-11-02T05:40:52;15.10;99.90
44823;DHT22;51097;51.984;5.650;2022-11-02T05:43:18;15.20;99.90
44823;DHT22;51097;51.984;5.650;2022-11-02T05:45:43;15.20;99.90
44823;DHT22;51097;51.984;5.650;2022-11-02T05:48:09;15.30;99.90
44823;DHT22;51097;51.984;5.650;2022-11-02T05:50:34;15.30;99.90
44823;DHT22;51097;51.984;5.650;2022-11-02T05:53:00;15.30;99.90
44823;DHT22;51097;51.984;5.650;2022-11-02T05:55:26;15.30;99.90
44823;DHT22;51097;51.984;5.650;2022-11-02T05:57:52;15.20;99.90
44823;DHT22;51097;51.984;5.650;2022-11-02T06:00:19;15.20;99.90
44823;DHT22;51097;51.984;5.650;2022-11-02T06:02:46;15.10;99.90
44823;DHT22;51097;51.984;5.650;2022-11-02T06:05:12;14.90;99.90
44823;DHT22;51097;51.984;5.650;2022-11-02T06:07:37;14.80;99.90
44823;DHT22;51097;51.984;5.650;2022-11-02T06:10:03;14.90;99.90
44823;DHT22;51097;51.984;5.650;2022-11-02T06:12:29;15.00;99.90
44823;DHT22;51097;51.984;5.650;2022-11-02T06:14:55;15.00;99.90
44823;DHT22;51097;51.984;5.650;2022-11-02T06:17:23;15.10;99.90
44823;DHT22;51097;51.984;5.650;2022-11-02T06:19:48;15.00;99.90
44823;DHT22;51097;51.984;5.650;2022-11-02T06:22:14;15.00;99.90
44823;DHT22;51097;51.984;5.650;2022-11-02T06:24:39;15.00;99.90
44823;DHT22;51097;51.984;5.650;2022-11-02T06:27:08;15.00;99.90
44823;DHT22;51097;51.984;5.650;2022-11-02T06:29:33;15.00;99.90
44823;DHT22;51097;51.984;5.650;2022-11-02T06:31:59;15.00;99.90
44823;DHT22;51097;51.984;5.650;2022-11-02T06:34:24;14.90;99.90
44823;DHT22;51097;51.984;5.650;2022-11-02T06:36:50;14.80;99.90
44823;DHT22;51097;51.984;5.650;2022-11-02T06:39:15;14.80;99.90
44823;DHT22;51097;51.984;5.650;2022-11-02T06:41:41;14.80;99.90
44823;DHT22;51097;51.984;5.650;2022-11-02T06:44:06;14.70;99.90
44823;DHT22;51097;51.984;5.650;2022-11-02T06:46:32;14.70;99.90
44823;DHT22;51097;51.984;5.650;2022-11-02T06:48:58;14.60;99.90
44823;DHT22;51097;51.984;5.650;2022-11-02T06:51:23;14.70;99.90
44823;DHT22;51097;51.984;5.650;2022-11-02T06:53:49;14.70;99.90
44823;DHT22;51097;51.984;5.650;2022-11-02T06:56:14;14.70;99.90
44823;DHT22;51097;51.984;5.650;2022-11-02T06:58:40;14.60;99.90
44823;DHT22;51097;51.984;5.650;2022-11-02T07:01:07;14.70;99.90
44823;DHT22;51097;51.984;5.650;2022-11-02T07:03:33;14.70;99.90
44823;DHT22;51097;51.984;5.650;2022-11-02T07:05:59;14.60;99.90
44823;DHT22;51097;51.984;5.650;2022-11-02T07:08:25;14.60;99.90
44823;DHT22;51097;51.984;5.650;2022-11-02T07:10:51;14.60;99.90
44823;DHT22;51097;51.984;5.650;2022-11-02T07:13:17;14.60;99.90
44823;DHT22;51097;51.984;5.650;2022-11-02T07:15:42;14.50;99.90
44823;DHT22;51097;51.984;5.650;2022-11-02T07:18:08;14.60;99.90
44823;DHT22;51097;51.984;5.650;2022-11-02T07:20:34;14.50;99.90
44823;DHT22;51097;51.984;5.650;2022-11-02T07:23:00;14.60;99.90
44823;DHT22;51097;51.984;5.650;2022-11-02T07:25:28;14.60;99.90
44823;DHT22;51097;51.984;5.650;2022-11-02T07:27:57;14.60;99.90
44823;DHT22;51097;51.984;5.650;2022-11-02T07:30:24;14.70;99.90
44823;DHT22;51097;51.984;5.650;2022-11-02T07:32:50;14.80;99.90
44823;DHT22;51097;51.984;5.650;2022-11-02T07:35:16;14.80;99.90
44823;DHT22;51097;51.984;5.650;2022-11-02T07:37:42;14.80;99.90
44823;DHT22;51097;51.984;5.650;2022-11-02T07:40:10;14.80;99.90
44823;DHT22;51097;51.984;5.650;2022-11-02T07:42:43;14.90;99.90
44823;DHT22;51097;51.984;5.650;2022-11-02T07:45:10;15.00;99.90
44823;DHT22;51097;51.984;5.650;2022-11-02T07:47:41;15.00;99.90
44823;DHT22;51097;51.984;5.650;2022-11-02T07:50:07;15.10;99.90
44823;DHT22;51097;51.984;5.650;2022-11-02T07:52:33;15.00;99.90
44823;DHT22;51097;51.984;5.650;2022-11-02T07:54:58;15.00;99.90
44823;DHT22;51097;51.984;5.650;2022-11-02T07:57:24;15.20;99.90
44823;DHT22;51097;51.984;5.650;2022-11-02T07:59:49;15.30;99.90
44823;DHT22;51097;51.984;5.650;2022-11-02T08:02:15;15.30;99.90
44823;DHT22;51097;51.984;5.650;2022-11-02T08:04:40;15.30;99.90
44823;DHT22;51097;51.984;5.650;2022-11-02T08:07:06;15.20;99.90
44823;DHT22;51097;51.984;5.650;2022-11-02T08:09:31;15.40;99.90
44823;DHT22;51097;51.984;5.650;2022-11-02T08:11:57;15.30;99.90
44823;DHT22;51097;51.984;5.650;2022-11-02T08:14:22;15.50;99.90
44823;DHT22;51097;51.984;5.650;2022-11-02T08:16:51;15.60;99.90
44823;DHT22;51097;51.984;5.650;2022-11-02T08:19:16;15.40;99.90
44823;DHT22;51097;51.984;5.650;2022-11-02T08:21:42;15.20;99.90
44823;DHT22;51097;51.984;5.650;2022-11-02T08:24:07;15.20;99.90
44823;DHT22;51097;51.984;5.650;2022-11-02T08:26:33;15.30;99.90
44823;DHT22;51097;51.984;5.650;2022-11-02T08:28:58;15.40;99.90
44823;DHT22;51097;51.984;5.650;2022-11-02T08:31:24;15.20;99.90
44823;DHT22;51097;51.984;5.650;2022-11-02T08:33:49;15.30;99.90
44823;DHT22;51097;51.984;5.650;2022-11-02T08:36:15;15.40;99.90
44823;DHT22;51097;51.984;5.650;2022-11-02T08:38:40;15.40;99.90
44823;DHT22;51097;51.984;5.650;2022-11-02T08:41:06;15.40;99.90
44823;DHT22;51097;51.984;5.650;2022-11-02T08:43:32;15.40;99.90
44823;DHT22;51097;51.984;5.650;2022-11-02T08:45:58;15.60;99.90
44823;DHT22;51097;51.984;5.650;2022-11-02T08:48:25;15.60;99.90
44823;DHT22;51097;51.984;5.650;2022-11-02T08:50:50;15.50;99.90
44823;DHT22;51097;51.984;5.650;2022-11-02T08:53:16;15.50;99.90
44823;DHT22;51097;51.984;5.650;2022-11-02T08:55:42;15.60;99.90
44823;DHT22;51097;51.984;5.650;2022-11-02T08:58:07;15.60;99.90
44823;DHT22;51097;51.984;5.650;2022-11-02T09:00:34;15.60;99.90
44823;DHT22;51097;51.984;5.650;2022-11-02T09:03:10;15.60;99.90
44823;DHT22;51097;51.984;5.650;2022-11-02T09:05:44;15.80;99.90
44823;DHT22;51097;51.984;5.650;2022-11-02T09:08:14;15.70;99.90
44823;DHT22;51097;51.984;5.650;2022-11-02T09:10:41;15.60;99.90
44823;DHT22;51097;51.984;5.650;2022-11-02T09:13:09;15.70;99.90
44823;DHT22;51097;51.984;5.650;2022-11-02T09:15:36;15.70;99.90
44823;DHT22;51097;51.984;5.650;2022-11-02T09:18:02;15.80;99.90
44823;DHT22;51097;51.984;5.650;2022-11-02T09:20:27;15.70;99.90
44823;DHT22;51097;51.984;5.650;2022-11-02T09:22:53;15.60;99.90
44823;DHT22;51097;51.984;5.650;2022-11-02T09:25:19;15.80;99.90
44823;DHT22;51097;51.984;5.650;2022-11-02T09:27:45;15.80;99.90
44823;DHT22;51097;51.984;5.650;2022-11-02T09:30:11;15.80;99.90
44823;DHT22;51097;51.984;5.650;2022-11-02T09:32:37;15.80;99.90
44823;DHT22;51097;51.984;5.650;2022-11-02T09:35:05;15.80;99.90
44823;DHT22;51097;51.984;5.650;2022-11-02T09:37:31;15.80;99.90
44823;DHT22;51097;51.984;5.650;2022-11-02T09:39:57;15.80;99.90
44823;DHT22;51097;51.984;5.650;2022-11-02T09:45:14;15.80;99.90
44823;DHT22;51097;51.984;5.650;2022-11-02T09:47:51;15.80;99.90
44823;DHT22;51097;51.984;5.650;2022-11-02T09:50:25;15.80;99.90
44823;DHT22;51097;51.984;5.650;2022-11-02T09:52:59;15.80;99.90
44823;DHT22;51097;51.984;5.650;2022-11-02T09:55:34;15.80;99.90
44823;DHT22;51097;51.984;5.650;2022-11-02T09:58:06;15.80;99.90
44823;DHT22;51097;51.984;5.650;2022-11-02T10:00:37;15.90;99.90
44823;DHT22;51097;51.984;5.650;2022-11-02T10:06:06;15.90;99.90
44823;DHT22;51097;51.984;5.650;2022-11-02T10:11:40;16.00;99.90
44823;DHT22;51097;51.984;5.650;2022-11-02T10:16:50;16.10;99.90
44823;DHT22;51097;51.984;5.650;2022-11-02T10:19:19;16.20;99.90
44823;DHT22;51097;51.984;5.650;2022-11-02T10:21:52;16.30;99.90
44823;DHT22;51097;51.984;5.650;2022-11-02T10:24:33;16.30;99.90
44823;DHT22;51097;51.984;5.650;2022-11-02T10:27:01;16.20;99.90
44823;DHT22;51097;51.984;5.650;2022-11-02T10:32:04;16.30;99.90
44823;DHT22;51097;51.984;5.650;2022-11-02T10:34:31;16.30;99.90
44823;DHT22;51097;51.984;5.650;2022-11-02T10:42:55;16.50;99.90
44823;DHT22;51097;51.984;5.650;2022-11-02T10:45:55;16.60;99.90
44823;DHT22;51097;51.984;5.650;2022-11-02T10:51:11;16.50;99.90
44823;DHT22;51097;51.984;5.650;2022-11-02T10:53:45;16.50;99.90
44823;DHT22;51097;51.984;5.650;2022-11-02T10:56:19;16.60;99.90
44823;DHT22;51097;51.984;5.650;2022-11-02T11:01:15;16.60;99.90
44823;DHT22;51097;51.984;5.650;2022-11-02T11:04:00;16.70;99.90
44823;DHT22;51097;51.984;5.650;2022-11-02T11:06:37;16.80;99.90
44823;DHT22;51097;51.984;5.650;2022-11-02T11:09:19;16.70;99.90
44823;DHT22;51097;51.984;5.650;2022-11-02T11:11:55;16.90;99.90
44823;DHT22;51097;51.984;5.650;2022-11-02T11:14:24;17.00;99.90
44823;DHT22;51097;51.984;5.650;2022-11-02T11:16:53;17.20;99.90
44823;DHT22;51097;51.984;5.650;2022-11-02T11:19:34;17.30;99.90
44823;DHT22;51097;51.984;5.650;2022-11-02T11:22:01;17.40;99.90
44823;DHT22;51097;51.984;5.650;2022-11-02T11:24:32;17.30;99.90
44823;DHT22;51097;51.984;5.650;2022-11-02T11:27:03;17.50;99.90
44823;DHT22;51097;51.984;5.650;2022-11-02T11:29:30;17.60;99.90
44823;DHT22;51097;51.984;5.650;2022-11-02T11:31:57;17.70;99.90
44823;DHT22;51097;51.984;5.650;2022-11-02T11:34:26;17.60;99.90
44823;DHT22;51097;51.984;5.650;2022-11-02T11:37:13;17.70;99.90
44823;DHT22;51097;51.984;5.650;2022-11-02T11:39:42;17.70;99.90
44823;DHT22;51097;51.984;5.650;2022-11-02T11:42:21;18.00;99.90
44823;DHT22;51097;51.984;5.650;2022-11-02T11:47:29;17.90;99.90
44823;DHT22;51097;51.984;5.650;2022-11-02T11:49:56;17.90;99.90
44823;DHT22;51097;51.984;5.650;2022-11-02T11:52:30;17.80;99.90
44823;DHT22;51097;51.984;5.650;2022-11-02T11:54:58;18.00;99.90
44823;DHT22;51097;51.984;5.650;2022-11-02T11:57:24;18.10;99.90
44823;DHT22;51097;51.984;5.650;2022-11-02T11:59:52;18.10;99.90
44823;DHT22;51097;51.984;5.650;2022-11-02T12:04:49;18.10;99.90
44823;DHT22;51097;51.984;5.650;2022-11-02T12:07:30;18.10;99.90
44823;DHT22;51097;51.984;5.650;2022-11-02T12:24:06;18.50;99.90
44823;DHT22;51097;51.984;5.650;2022-11-02T12:29:40;18.60;99.90
44823;DHT22;51097;51.984;5.650;2022-11-02T12:41:08;18.60;99.90
44823;DHT22;51097;51.984;5.650;2022-11-02T12:43:45;18.70;99.90
44823;DHT22;51097;51.984;5.650;2022-11-02T12:46:30;18.70;99.90
44823;DHT22;51097;51.984;5.650;2022-11-02T12:54:20;18.90;99.90
44823;DHT22;51097;51.984;5.650;2022-11-02T12:56:51;19.00;99.90
44823;DHT22;51097;51.984;5.650;2022-11-02T12:59:29;19.10;99.90
44823;DHT22;51097;51.984;5.650;2022-11-02T13:02:03;19.10;99.90
44823;DHT22;51097;51.984;5.650;2022-11-02T13:05:25;19.20;99.90
44823;DHT22;51097;51.984;5.650;2022-11-02T13:07:30;19.30;99.90
44823;DHT22;51097;51.984;5.650;2022-11-02T13:10:06;19.30;99.90
44823;DHT22;51097;51.984;5.650;2022-11-02T13:12:39;19.30;99.90
44823;DHT22;51097;51.984;5.650;2022-11-02T13:15:05;19.40;99.90
44823;DHT22;51097;51.984;5.650;2022-11-02T13:17:52;19.40;99.90
44823;DHT22;51097;51.984;5.650;2022-11-02T13:20:23;19.50;99.90
44823;DHT22;51097;51.984;5.650;2022-11-02T13:25:46;19.80;99.90
44823;DHT22;51097;51.984;5.650;2022-11-02T13:28:34;19.70;99.40
44823;DHT22;51097;51.984;5.650;2022-11-02T13:31:03;19.80;99.90
44823;DHT22;51097;51.984;5.650;2022-11-02T13:33:40;19.70;99.90
44823;DHT22;51097;51.984;5.650;2022-11-02T13:36:08;19.60;99.90
44823;DHT22;51097;51.984;5.650;2022-11-02T13:38:47;19.70;99.90
44823;DHT22;51097;51.984;5.650;2022-11-02T13:44:25;19.80;99.90
44823;DHT22;51097;51.984;5.650;2022-11-02T13:49:42;19.90;99.90
44823;DHT22;51097;51.984;5.650;2022-11-02T13:52:19;19.90;99.90
44823;DHT22;51097;51.984;5.650;2022-11-02T13:54:49;19.90;99.90
44823;DHT22;51097;51.984;5.650;2022-11-02T13:59:47;19.90;99.90
44823;DHT22;51097;51.984;5.650;2022-11-02T14:02:15;19.80;99.90
44823;DHT22;51097;51.984;5.650;2022-11-02T14:04:42;19.80;99.90
44823;DHT22;51097;51.984;5.650;2022-11-02T14:07:21;19.80;99.90
44823;DHT22;51097;51.984;5.650;2022-11-02T14:09:48;19.80;99.90
44823;DHT22;51097;51.984;5.650;2022-11-02T14:25:47;19.40;99.90
44823;DHT22;51097;51.984;5.650;2022-11-02T14:30:44;19.60;99.90
44823;DHT22;51097;51.984;5.650;2022-11-02T14:39:08;19.40;99.90
44823;DHT22;51097;51.984;5.650;2022-11-02T14:47:29;19.10;99.90
44823;DHT22;51097;51.984;5.650;2022-11-02T14:50:02;18.90;99.90
44823;DHT22;51097;51.984;5.650;2022-11-02T14:52:32;18.90;99.90
44823;DHT22;51097;51.984;5.650;2022-11-02T14:54:59;18.90;99.90
44823;DHT22;51097;51.984;5.650;2022-11-02T14:57:30;18.60;99.90
44823;DHT22;51097;51.984;5.650;2022-11-02T15:00:02;18.70;99.90
44823;DHT22;51097;51.984;5.650;2022-11-02T15:02:37;18.60;99.90
44823;DHT22;51097;51.984;5.650;2022-11-02T15:05:06;18.50;99.90
44823;DHT22;51097;51.984;5.650;2022-11-02T15:07:48;18.50;99.90
44823;DHT22;51097;51.984;5.650;2022-11-02T15:12:42;18.30;99.90
44823;DHT22;51097;51.984;5.650;2022-11-02T15:15:33;18.30;99.90
44823;DHT22;51097;51.984;5.650;2022-11-02T15:20:30;18.20;99.90
44823;DHT22;51097;51.984;5.650;2022-11-02T15:25:39;18.10;99.90
44823;DHT22;51097;51.984;5.650;2022-11-02T15:28:11;18.00;99.90
44823;DHT22;51097;51.984;5.650;2022-11-02T15:30:42;18.10;99.90
44823;DHT22;51097;51.984;5.650;2022-11-02T15:33:41;18.00;99.90
44823;DHT22;51097;51.984;5.650;2022-11-02T15:36:19;17.90;99.90
44823;DHT22;51097;51.984;5.650;2022-11-02T15:38:48;17.80;99.90
44823;DHT22;51097;51.984;5.650;2022-11-02T15:52:02;17.50;99.90
44823;DHT22;51097;51.984;5.650;2022-11-02T15:54:39;17.50;99.90
44823;DHT22;51097;51.984;5.650;2022-11-02T15:57:22;17.30;99.90
44823;DHT22;51097;51.984;5.650;2022-11-02T16:02:34;17.30;99.90
44823;DHT22;51097;51.984;5.650;2022-11-02T16:05:01;17.40;99.90
44823;DHT22;51097;51.984;5.650;2022-11-02T16:07:28;17.30;99.90
44823;DHT22;51097;51.984;5.650;2022-11-02T16:12:44;17.10;99.90
44823;DHT22;51097;51.984;5.650;2022-11-02T16:15:17;17.10;99.90
44823;DHT22;51097;51.984;5.650;2022-11-02T16:17:47;17.00;99.90
44823;DHT22;51097;51.984;5.650;2022-11-02T16:20:23;17.00;99.90
44823;DHT22;51097;51.984;5.650;2022-11-02T16:25:27;16.80;99.90
44823;DHT22;51097;51.984;5.650;2022-11-02T16:27:54;16.70;99.90
44823;DHT22;51097;51.984;5.650;2022-11-02T16:30:21;16.90;99.90
44823;DHT22;51097;51.984;5.650;2022-11-02T16:32:50;16.70;99.90
44823;DHT22;51097;51.984;5.650;2022-11-02T16:35:17;16.70;99.90
44823;DHT22;51097;51.984;5.650;2022-11-02T16:37:47;16.50;99.90
44823;DHT22;51097;51.984;5.650;2022-11-02T16:40:17;16.60;99.90
44823;DHT22;51097;51.984;5.650;2022-11-02T16:42:48;16.50;99.90
44823;DHT22;51097;51.984;5.650;2022-11-02T16:45:37;16.40;99.90
44823;DHT22;51097;51.984;5.650;2022-11-02T16:48:27;16.50;99.90
44823;DHT22;51097;51.984;5.650;2022-11-02T16:53:37;16.40;99.90
44823;DHT22;51097;51.984;5.650;2022-11-02T16:56:14;16.30;99.90
44823;DHT22;51097;51.984;5.650;2022-11-02T16:58:47;16.30;99.90
44823;DHT22;51097;51.984;5.650;2022-11-02T17:01:20;16.20;99.90
44823;DHT22;51097;51.984;5.650;2022-11-02T17:03:47;16.30;99.90
44823;DHT22;51097;51.984;5.650;2022-11-02T17:06:13;16.20;99.90
44823;DHT22;51097;51.984;5.650;2022-11-02T17:08:40;16.10;99.90
44823;DHT22;51097;51.984;5.650;2022-11-02T17:11:12;16.10;99.90
44823;DHT22;51097;51.984;5.650;2022-11-02T17:13:48;16.10;99.90
44823;DHT22;51097;51.984;5.650;2022-11-02T17:16:14;16.10;99.90
44823;DHT22;51097;51.984;5.650;2022-11-02T17:18:39;16.10;99.90
44823;DHT22;51097;51.984;5.650;2022-11-02T17:23:37;16.00;99.90
44823;DHT22;51097;51.984;5.650;2022-11-02T17:29:02;15.90;99.90
44823;DHT22;51097;51.984;5.650;2022-11-02T17:31:32;15.90;99.90
44823;DHT22;51097;51.984;5.650;2022-11-02T17:34:08;15.80;99.90
44823;DHT22;51097;51.984;5.650;2022-11-02T17:36:45;15.70;99.90
44823;DHT22;51097;51.984;5.650;2022-11-02T17:39:13;15.90;99.90
44823;DHT22;51097;51.984;5.650;2022-11-02T17:41:39;15.80;99.90
44823;DHT22;51097;51.984;5.650;2022-11-02T17:44:22;15.80;99.90
44823;DHT22;51097;51.984;5.650;2022-11-02T17:46:48;15.70;99.90
44823;DHT22;51097;51.984;5.650;2022-11-02T17:49:14;15.80;99.90
44823;DHT22;51097;51.984;5.650;2022-11-02T17:51:40;15.80;99.90
44823;DHT22;51097;51.984;5.650;2022-11-02T17:54:07;15.70;99.90
44823;DHT22;51097;51.984;5.650;2022-11-02T17:56:33;15.70;99.90
44823;DHT22;51097;51.984;5.650;2022-11-02T17:58:58;15.60;99.90
44823;DHT22;51097;51.984;5.650;2022-11-02T18:01:24;15.60;99.90
44823;DHT22;51097;51.984;5.650;2022-11-02T18:03:49;15.60;99.90
44823;DHT22;51097;51.984;5.650;2022-11-02T18:06:15;15.60;99.90
44823;DHT22;51097;51.984;5.650;2022-11-02T18:08:41;15.60;99.90
44823;DHT22;51097;51.984;5.650;2022-11-02T18:11:41;15.60;99.90
44823;DHT22;51097;51.984;5.650;2022-11-02T18:14:12;15.60;99.90
44823;DHT22;51097;51.984;5.650;2022-11-02T18:16:38;15.60;99.90
44823;DHT22;51097;51.984;5.650;2022-11-02T18:19:03;15.40;99.90